sensor_id;sensor_type;location;lat;lon;timestamp;P1;durP1;ratioP1;P2;durP2;ratioP2
15504;SDS011;7854;52.184;5.942;2022-11-20T00:02:54;15;;;13;;
15504;SDS011;7854;52.184;5.942;2022-11-20T00:02:54;37;;;15;;
15504;SDS011;7854;52.184;5.942;2022-11-20T00:05:05;17;;;13;;
15504;SDS011;7854;52.184;5.942;2022-11-20T00:07:18;15;;;13;;
15504;SDS011;7854;52.184;5.942;2022-11-20T00:09:33;13;;;12;;
15504;SDS011;7854;52.184;5.942;2022-11-20T00:11:47;36;;;14;;
15504;SDS011;7854;52.184;5.942;2022-11-20T00:14:02;14;;;11;;
15504;SDS011;7854;52.184;5.942;2022-11-20T00:16:17;13;;;12;;
15504;SDS011;7854;52.184;5.942;2022-11-20T00:18:32;12;;;10;;
15504;SDS011;7854;52.184;5.942;2022-11-20T00:20:45;13;;;11;;
15504;SDS011;7854;52.184;5.942;2022-11-20T00:22:59;16;;;14;;
15504;SDS011;7854;52.184;5.942;2022-11-20T00:25:14;18;;;13;;
15504;SDS011;7854;52.184;5.942;2022-11-20T00:27:28;17;;;13;;
15504;SDS011;7854;52.184;5.942;2022-11-20T00:29:42;15;;;13;;
15504;SDS011;7854;52.184;5.942;2022-11-20T00:31:57;14;;;12;;
15504;SDS011;7854;52.184;5.942;2022-11-20T00:34:12;11;;;10;;
15504;SDS011;7854;52.184;5.942;2022-11-20T00:36:27;15;;;12;;
15504;SDS011;7854;52.184;5.942;2022-11-20T00:38:40;20;;;13;;
15504;SDS011;7854;52.184;5.942;2022-11-20T00:40:56;19;;;12;;
15504;SDS011;7854;52.184;5.942;2022-11-20T00:43:08;15;;;12;;
15504;SDS011;7854;52.184;5.942;2022-11-20T00:45:23;24;;;14;;
15504;SDS011;7854;52.184;5.942;2022-11-20T00:47:36;16;;;13;;
15504;SDS011;7854;52.184;5.942;2022-11-20T00:49:51;13;;;12;;
15504;SDS011;7854;52.184;5.942;2022-11-20T00:52:05;16;;;13;;
15504;SDS011;7854;52.184;5.942;2022-11-20T00:54:20;20;;;13;;
15504;SDS011;7854;52.184;5.942;2022-11-20T00:56:34;14;;;13;;
15504;SDS011;7854;52.184;5.942;2022-11-20T00:58:49;16;;;13;;
15504;SDS011;7854;52.184;5.942;2022-11-20T01:01:04;22;;;15;;
15504;SDS011;7854;52.184;5.942;2022-11-20T01:03:18;20;;;14;;
15504;SDS011;7854;52.184;5.942;2022-11-20T01:05:33;15;;;13;;
15504;SDS011;7854;52.184;5.942;2022-11-20T01:07:46;15;;;14;;
15504;SDS011;7854;52.184;5.942;2022-11-20T01:10:01;16;;;13;;
15504;SDS011;7854;52.184;5.942;2022-11-20T01:12:15;15;;;13;;
15504;SDS011;7854;52.184;5.942;2022-11-20T01:14:30;30;;;13;;
15504;SDS011;7854;52.184;5.942;2022-11-20T01:16:45;11;;;10;;
15504;SDS011;7854;52.184;5.942;2022-11-20T01:18:59;13;;;12;;
15504;SDS011;7854;52.184;5.942;2022-11-20T01:21:16;12;;;11;;
15504;SDS011;7854;52.184;5.942;2022-11-20T01:23:29;16;;;12;;
15504;SDS011;7854;52.184;5.942;2022-11-20T01:25:42;14;;;13;;
15504;SDS011;7854;52.184;5.942;2022-11-20T01:27:57;12;;;11;;
15504;SDS011;7854;52.184;5.942;2022-11-20T01:30:11;11;;;10;;
15504;SDS011;7854;52.184;5.942;2022-11-20T01:32:25;11;;;10;;
15504;SDS011;7854;52.184;5.942;2022-11-20T01:34:39;12;;;11;;
15504;SDS011;7854;52.184;5.942;2022-11-20T01:36:53;13;;;11;;
15504;SDS011;7854;52.184;5.942;2022-11-20T01:39:10;11;;;10;;
15504;SDS011;7854;52.184;5.942;2022-11-20T01:41:23;12;;;10;;
15504;SDS011;7854;52.184;5.942;2022-11-20T01:43:36;10;;;9;;
15504;SDS011;7854;52.184;5.942;2022-11-20T01:45:59;13;;;12;;
15504;SDS011;7854;52.184;5.942;2022-11-20T01:48:05;12;;;11;;
15504;SDS011;7854;52.184;5.942;2022-11-20T01:50:20;12;;;11;;
15504;SDS011;7854;52.184;5.942;2022-11-20T01:52:34;11;;;10;;
15504;SDS011;7854;52.184;5.942;2022-11-20T01:54:48;14;;;12;;
15504;SDS011;7854;52.184;5.942;2022-11-20T01:57:02;12;;;10;;
15504;SDS011;7854;52.184;5.942;2022-11-20T01:59:17;15;;;11;;
15504;SDS011;7854;52.184;5.942;2022-11-20T02:01:31;14;;;12;;
15504;SDS011;7854;52.184;5.942;2022-11-20T02:03:46;12;;;11;;
15504;SDS011;7854;52.184;5.942;2022-11-20T02:06:02;12;;;10;;
15504;SDS011;7854;52.184;5.942;2022-11-20T02:08:14;21;;;13;;
15504;SDS011;7854;52.184;5.942;2022-11-20T02:10:29;12;;;10;;
15504;SDS011;7854;52.184;5.942;2022-11-20T02:12:43;13;;;10;;
15504;SDS011;7854;52.184;5.942;2022-11-20T02:14:58;12;;;11;;
15504;SDS011;7854;52.184;5.942;2022-11-20T02:17:13;14;;;11;;
15504;SDS011;7854;52.184;5.942;2022-11-20T02:19:28;10;;;9;;
15504;SDS011;7854;52.184;5.942;2022-11-20T02:21:42;20;;;12;;
15504;SDS011;7854;52.184;5.942;2022-11-20T02:24:04;14;;;11;;
15504;SDS011;7854;52.184;5.942;2022-11-20T02:26:11;11;;;10;;
15504;SDS011;7854;52.184;5.942;2022-11-20T02:28:24;13;;;11;;
15504;SDS011;7854;52.184;5.942;2022-11-20T02:30:38;12;;;11;;
15504;SDS011;7854;52.184;5.942;2022-11-20T02:32:53;17;;;10;;
15504;SDS011;7854;52.184;5.942;2022-11-20T02:35:08;12;;;11;;
15504;SDS011;7854;52.184;5.942;2022-11-20T02:37:22;13;;;10;;
15504;SDS011;7854;52.184;5.942;2022-11-20T02:39:36;12;;;10;;
15504;SDS011;7854;52.184;5.942;2022-11-20T02:41:49;10;;;9;;
15504;SDS011;7854;52.184;5.942;2022-11-20T02:44:04;9;;;8;;
15504;SDS011;7854;52.184;5.942;2022-11-20T02:46:18;11;;;10;;
15504;SDS011;7854;52.184;5.942;2022-11-20T02:48:33;11;;;9;;
15504;SDS011;7854;52.184;5.942;2022-11-20T02:50:47;13;;;11;;
15504;SDS011;7854;52.184;5.942;2022-11-20T02:53:02;20;;;9;;
15504;SDS011;7854;52.184;5.942;2022-11-20T02:55:16;10;;;9;;
15504;SDS011;7854;52.184;5.942;2022-11-20T02:57:31;10;;;9;;
15504;SDS011;7854;52.184;5.942;2022-11-20T02:59:45;12;;;11;;
15504;SDS011;7854;52.184;5.942;2022-11-20T03:02:00;18;;;12;;
15504;SDS011;7854;52.184;5.942;2022-11-20T03:04:14;16;;;10;;
15504;SDS011;7854;52.184;5.942;2022-11-20T03:06:29;13;;;10;;
15504;SDS011;7854;52.184;5.942;2022-11-20T03:08:43;16;;;12;;
15504;SDS011;7854;52.184;5.942;2022-11-20T03:11:01;15;;;13;;
15504;SDS011;7854;52.184;5.942;2022-11-20T03:13:12;13;;;11;;
15504;SDS011;7854;52.184;5.942;2022-11-20T03:15:26;12;;;11;;
15504;SDS011;7854;52.184;5.942;2022-11-20T03:17:41;14;;;11;;
15504;SDS011;7854;52.184;5.942;2022-11-20T03:19:55;13;;;12;;
15504;SDS011;7854;52.184;5.942;2022-11-20T03:22:09;22;;;14;;
15504;SDS011;7854;52.184;5.942;2022-11-20T03:24:24;22;;;11;;
15504;SDS011;7854;52.184;5.942;2022-11-20T03:26:39;20;;;13;;
15504;SDS011;7854;52.184;5.942;2022-11-20T03:28:53;13;;;10;;
15504;SDS011;7854;52.184;5.942;2022-11-20T03:31:07;12;;;10;;
15504;SDS011;7854;52.184;5.942;2022-11-20T03:33:21;13;;;10;;
15504;SDS011;7854;52.184;5.942;2022-11-20T03:35:35;10;;;9;;
15504;SDS011;7854;52.184;5.942;2022-11-20T03:37:50;17;;;12;;
15504;SDS011;7854;52.184;5.942;2022-11-20T03:40:05;12;;;11;;
15504;SDS011;7854;52.184;5.942;2022-11-20T03:42:18;23;;;11;;
15504;SDS011;7854;52.184;5.942;2022-11-20T03:44:33;16;;;12;;
15504;SDS011;7854;52.184;5.942;2022-11-20T03:46:47;12;;;9;;
15504;SDS011;7854;52.184;5.942;2022-11-20T03:49:01;11;;;10;;
15504;SDS011;7854;52.184;5.942;2022-11-20T03:51:16;11;;;10;;
15504;SDS011;7854;52.184;5.942;2022-11-20T03:53:30;10;;;9;;
15504;SDS011;7854;52.184;5.942;2022-11-20T03:55:45;12;;;10;;
15504;SDS011;7854;52.184;5.942;2022-11-20T03:57:59;12;;;11;;
15504;SDS011;7854;52.184;5.942;2022-11-20T04:00:14;10;;;9;;
15504;SDS011;7854;52.184;5.942;2022-11-20T04:02:28;10;;;9;;
15504;SDS011;7854;52.184;5.942;2022-11-20T04:04:42;12;;;10;;
15504;SDS011;7854;52.184;5.942;2022-11-20T04:06:57;11;;;10;;
15504;SDS011;7854;52.184;5.942;2022-11-20T04:09:11;11;;;10;;
15504;SDS011;7854;52.184;5.942;2022-11-20T04:11:26;8;;;8;;
15504;SDS011;7854;52.184;5.942;2022-11-20T04:13:40;10;;;9;;
15504;SDS011;7854;52.184;5.942;2022-11-20T04:15:56;12;;;10;;
15504;SDS011;7854;52.184;5.942;2022-11-20T04:18:09;10;;;9;;
15504;SDS011;7854;52.184;5.942;2022-11-20T04:20:24;10;;;9;;
15504;SDS011;7854;52.184;5.942;2022-11-20T04:22:38;9;;;9;;
15504;SDS011;7854;52.184;5.942;2022-11-20T04:24:52;13;;;9;;
15504;SDS011;7854;52.184;5.942;2022-11-20T04:27:07;9;;;8;;
15504;SDS011;7854;52.184;5.942;2022-11-20T04:29:21;11;;;9;;
15504;SDS011;7854;52.184;5.942;2022-11-20T04:31:36;10;;;9;;
15504;SDS011;7854;52.184;5.942;2022-11-20T04:36:05;12;;;10;;
15504;SDS011;7854;52.184;5.942;2022-11-20T04:38:19;10;;;9;;
15504;SDS011;7854;52.184;5.942;2022-11-20T04:40:34;11;;;10;;
15504;SDS011;7854;52.184;5.942;2022-11-20T04:42:48;11;;;10;;
15504;SDS011;7854;52.184;5.942;2022-11-20T04:45:03;10;;;9;;
15504;SDS011;7854;52.184;5.942;2022-11-20T04:47:17;12;;;10;;
15504;SDS011;7854;52.184;5.942;2022-11-20T04:49:31;11;;;9;;
15504;SDS011;7854;52.184;5.942;2022-11-20T04:51:46;13;;;10;;
15504;SDS011;7854;52.184;5.942;2022-11-20T04:54:00;15;;;11;;
15504;SDS011;7854;52.184;5.942;2022-11-20T04:56:15;9;;;8;;
15504;SDS011;7854;52.184;5.942;2022-11-20T04:58:29;11;;;10;;
15504;SDS011;7854;52.184;5.942;2022-11-20T05:00:43;9;;;8;;
15504;SDS011;7854;52.184;5.942;2022-11-20T05:02:58;10;;;9;;
15504;SDS011;7854;52.184;5.942;2022-11-20T05:05:13;19;;;10;;
15504;SDS011;7854;52.184;5.942;2022-11-20T05:07:27;8;;;8;;
15504;SDS011;7854;52.184;5.942;2022-11-20T05:09:41;11;;;10;;
15504;SDS011;7854;52.184;5.942;2022-11-20T05:11:56;8;;;7;;
15504;SDS011;7854;52.184;5.942;2022-11-20T05:14:10;11;;;10;;
15504;SDS011;7854;52.184;5.942;2022-11-20T05:16:25;10;;;9;;
15504;SDS011;7854;52.184;5.942;2022-11-20T05:18:39;16;;;9;;
15504;SDS011;7854;52.184;5.942;2022-11-20T05:20:54;15;;;8;;
15504;SDS011;7854;52.184;5.942;2022-11-20T05:23:08;9;;;8;;
15504;SDS011;7854;52.184;5.942;2022-11-20T05:25:22;10;;;9;;
15504;SDS011;7854;52.184;5.942;2022-11-20T05:27:37;10;;;9;;
15504;SDS011;7854;52.184;5.942;2022-11-20T05:29:51;21;;;14;;
15504;SDS011;7854;52.184;5.942;2022-11-20T05:32:06;9;;;8;;
15504;SDS011;7854;52.184;5.942;2022-11-20T05:34:20;13;;;8;;
15504;SDS011;7854;52.184;5.942;2022-11-20T05:36:35;9;;;8;;
15504;SDS011;7854;52.184;5.942;2022-11-20T05:38:49;11;;;10;;
15504;SDS011;7854;52.184;5.942;2022-11-20T05:41:04;11;;;8;;
15504;SDS011;7854;52.184;5.942;2022-11-20T05:43:18;13;;;9;;
15504;SDS011;7854;52.184;5.942;2022-11-20T05:45:33;9;;;8;;
15504;SDS011;7854;52.184;5.942;2022-11-20T05:47:47;10;;;8;;
15504;SDS011;7854;52.184;5.942;2022-11-20T05:50:03;9;;;9;;
15504;SDS011;7854;52.184;5.942;2022-11-20T05:52:15;10;;;9;;
15504;SDS011;7854;52.184;5.942;2022-11-20T05:54:30;11;;;10;;
15504;SDS011;7854;52.184;5.942;2022-11-20T05:56:44;10;;;9;;
15504;SDS011;7854;52.184;5.942;2022-11-20T05:58:58;16;;;9;;
15504;SDS011;7854;52.184;5.942;2022-11-20T06:01:13;14;;;11;;
15504;SDS011;7854;52.184;5.942;2022-11-20T06:03:27;21;;;10;;
15504;SDS011;7854;52.184;5.942;2022-11-20T06:05:42;13;;;9;;
15504;SDS011;7854;52.184;5.942;2022-11-20T06:07:56;10;;;9;;
15504;SDS011;7854;52.184;5.942;2022-11-20T06:10:11;9;;;8;;
15504;SDS011;7854;52.184;5.942;2022-11-20T06:12:24;10;;;8;;
15504;SDS011;7854;52.184;5.942;2022-11-20T06:14:39;9;;;9;;
15504;SDS011;7854;52.184;5.942;2022-11-20T06:16:53;10;;;9;;
15504;SDS011;7854;52.184;5.942;2022-11-20T06:19:07;9;;;9;;
15504;SDS011;7854;52.184;5.942;2022-11-20T06:21:22;8;;;8;;
15504;SDS011;7854;52.184;5.942;2022-11-20T06:23:37;9;;;9;;
15504;SDS011;7854;52.184;5.942;2022-11-20T06:25:51;9;;;8;;
15504;SDS011;7854;52.184;5.942;2022-11-20T06:28:05;12;;;11;;
15504;SDS011;7854;52.184;5.942;2022-11-20T06:30:19;19;;;14;;
15504;SDS011;7854;52.184;5.942;2022-11-20T06:32:33;22;;;15;;
15504;SDS011;7854;52.184;5.942;2022-11-20T06:34:48;34;;;16;;
15504;SDS011;7854;52.184;5.942;2022-11-20T06:37:02;37;;;18;;
15504;SDS011;7854;52.184;5.942;2022-11-20T06:39:17;26;;;15;;
15504;SDS011;7854;52.184;5.942;2022-11-20T06:41:31;63;;;25;;
15504;SDS011;7854;52.184;5.942;2022-11-20T06:43:45;106;;;36;;
15504;SDS011;7854;52.184;5.942;2022-11-20T06:46:00;97;;;32;;
15504;SDS011;7854;52.184;5.942;2022-11-20T06:48:14;53;;;20;;
15504;SDS011;7854;52.184;5.942;2022-11-20T06:50:29;16;;;11;;
15504;SDS011;7854;52.184;5.942;2022-11-20T06:52:43;12;;;10;;
15504;SDS011;7854;52.184;5.942;2022-11-20T06:54:58;11;;;10;;
15504;SDS011;7854;52.184;5.942;2022-11-20T06:57:12;9;;;9;;
15504;SDS011;7854;52.184;5.942;2022-11-20T06:59:27;11;;;10;;
15504;SDS011;7854;52.184;5.942;2022-11-20T07:01:41;12;;;11;;
15504;SDS011;7854;52.184;5.942;2022-11-20T07:03:56;23;;;11;;
15504;SDS011;7854;52.184;5.942;2022-11-20T07:06:10;10;;;9;;
15504;SDS011;7854;52.184;5.942;2022-11-20T07:08:25;9;;;8;;
15504;SDS011;7854;52.184;5.942;2022-11-20T07:10:39;12;;;9;;
15504;SDS011;7854;52.184;5.942;2022-11-20T07:12:54;11;;;10;;
15504;SDS011;7854;52.184;5.942;2022-11-20T07:15:08;10;;;9;;
15504;SDS011;7854;52.184;5.942;2022-11-20T07:17:21;11;;;10;;
15504;SDS011;7854;52.184;5.942;2022-11-20T07:19:35;11;;;10;;
15504;SDS011;7854;52.184;5.942;2022-11-20T07:21:50;11;;;10;;
15504;SDS011;7854;52.184;5.942;2022-11-20T07:24:04;9;;;9;;
15504;SDS011;7854;52.184;5.942;2022-11-20T07:26:19;13;;;10;;
15504;SDS011;7854;52.184;5.942;2022-11-20T07:28:34;17;;;12;;
15504;SDS011;7854;52.184;5.942;2022-11-20T07:30:50;11;;;10;;
15504;SDS011;7854;52.184;5.942;2022-11-20T07:33:03;14;;;11;;
15504;SDS011;7854;52.184;5.942;2022-11-20T07:35:17;12;;;10;;
15504;SDS011;7854;52.184;5.942;2022-11-20T07:37:33;12;;;11;;
15504;SDS011;7854;52.184;5.942;2022-11-20T07:39:45;13;;;11;;
15504;SDS011;7854;52.184;5.942;2022-11-20T07:42:00;11;;;10;;
15504;SDS011;7854;52.184;5.942;2022-11-20T07:44:15;14;;;11;;
15504;SDS011;7854;52.184;5.942;2022-11-20T07:46:29;9;;;8;;
15504;SDS011;7854;52.184;5.942;2022-11-20T07:48:44;14;;;10;;
15504;SDS011;7854;52.184;5.942;2022-11-20T07:50:57;12;;;11;;
15504;SDS011;7854;52.184;5.942;2022-11-20T07:53:12;10;;;9;;
15504;SDS011;7854;52.184;5.942;2022-11-20T07:55:26;16;;;12;;
15504;SDS011;7854;52.184;5.942;2022-11-20T07:57:41;14;;;12;;
15504;SDS011;7854;52.184;5.942;2022-11-20T07:59:55;19;;;13;;
15504;SDS011;7854;52.184;5.942;2022-11-20T08:02:09;13;;;12;;
15504;SDS011;7854;52.184;5.942;2022-11-20T08:04:24;15;;;12;;
15504;SDS011;7854;52.184;5.942;2022-11-20T08:06:38;14;;;12;;
15504;SDS011;7854;52.184;5.942;2022-11-20T08:08:52;15;;;12;;
15504;SDS011;7854;52.184;5.942;2022-11-20T08:11:07;13;;;12;;
15504;SDS011;7854;52.184;5.942;2022-11-20T08:13:21;12;;;11;;
15504;SDS011;7854;52.184;5.942;2022-11-20T08:15:37;13;;;12;;
15504;SDS011;7854;52.184;5.942;2022-11-20T08:17:50;11;;;10;;
15504;SDS011;7854;52.184;5.942;2022-11-20T08:20:05;16;;;13;;
15504;SDS011;7854;52.184;5.942;2022-11-20T08:22:19;12;;;11;;
15504;SDS011;7854;52.184;5.942;2022-11-20T08:24:34;16;;;12;;
15504;SDS011;7854;52.184;5.942;2022-11-20T08:26:48;11;;;10;;
15504;SDS011;7854;52.184;5.942;2022-11-20T08:29:03;12;;;11;;
15504;SDS011;7854;52.184;5.942;2022-11-20T08:31:17;13;;;12;;
15504;SDS011;7854;52.184;5.942;2022-11-20T08:33:31;13;;;11;;
15504;SDS011;7854;52.184;5.942;2022-11-20T08:35:46;13;;;11;;
15504;SDS011;7854;52.184;5.942;2022-11-20T08:38:01;15;;;12;;
15504;SDS011;7854;52.184;5.942;2022-11-20T08:40:15;17;;;12;;
15504;SDS011;7854;52.184;5.942;2022-11-20T08:42:29;12;;;11;;
15504;SDS011;7854;52.184;5.942;2022-11-20T08:44:44;13;;;12;;
15504;SDS011;7854;52.184;5.942;2022-11-20T08:46:58;14;;;13;;
15504;SDS011;7854;52.184;5.942;2022-11-20T08:49:13;14;;;12;;
15504;SDS011;7854;52.184;5.942;2022-11-20T08:51:27;13;;;12;;
15504;SDS011;7854;52.184;5.942;2022-11-20T08:53:41;15;;;13;;
15504;SDS011;7854;52.184;5.942;2022-11-20T08:55:56;14;;;13;;
15504;SDS011;7854;52.184;5.942;2022-11-20T08:58:11;22;;;12;;
15504;SDS011;7854;52.184;5.942;2022-11-20T09:00:25;13;;;12;;
15504;SDS011;7854;52.184;5.942;2022-11-20T09:02:40;13;;;12;;
15504;SDS011;7854;52.184;5.942;2022-11-20T09:04:54;13;;;12;;
15504;SDS011;7854;52.184;5.942;2022-11-20T09:07:08;14;;;12;;
15504;SDS011;7854;52.184;5.942;2022-11-20T09:09:23;14;;;12;;
15504;SDS011;7854;52.184;5.942;2022-11-20T09:11:37;14;;;12;;
15504;SDS011;7854;52.184;5.942;2022-11-20T09:13:52;13;;;12;;
15504;SDS011;7854;52.184;5.942;2022-11-20T09:16:07;15;;;13;;
15504;SDS011;7854;52.184;5.942;2022-11-20T09:18:21;14;;;13;;
15504;SDS011;7854;52.184;5.942;2022-11-20T09:20:35;16;;;14;;
15504;SDS011;7854;52.184;5.942;2022-11-20T09:22:49;19;;;15;;
15504;SDS011;7854;52.184;5.942;2022-11-20T09:25:04;17;;;15;;
15504;SDS011;7854;52.184;5.942;2022-11-20T09:27:18;24;;;16;;
15504;SDS011;7854;52.184;5.942;2022-11-20T09:29:33;17;;;14;;
15504;SDS011;7854;52.184;5.942;2022-11-20T09:31:47;17;;;13;;
15504;SDS011;7854;52.184;5.942;2022-11-20T09:34:02;12;;;11;;
15504;SDS011;7854;52.184;5.942;2022-11-20T09:36:16;17;;;15;;
15504;SDS011;7854;52.184;5.942;2022-11-20T09:38:31;23;;;16;;
15504;SDS011;7854;52.184;5.942;2022-11-20T09:40:45;15;;;14;;
15504;SDS011;7854;52.184;5.942;2022-11-20T09:43:01;13;;;12;;
15504;SDS011;7854;52.184;5.942;2022-11-20T09:45:16;14;;;13;;
15504;SDS011;7854;52.184;5.942;2022-11-20T09:47:31;17;;;15;;
15504;SDS011;7854;52.184;5.942;2022-11-20T09:49:49;15;;;14;;
15504;SDS011;7854;52.184;5.942;2022-11-20T09:51:57;15;;;13;;
15504;SDS011;7854;52.184;5.942;2022-11-20T09:54:15;16;;;15;;
15504;SDS011;7854;52.184;5.942;2022-11-20T09:56:27;15;;;13;;
15504;SDS011;7854;52.184;5.942;2022-11-20T09:58:41;14;;;13;;
15504;SDS011;7854;52.184;5.942;2022-11-20T10:00:56;14;;;13;;
15504;SDS011;7854;52.184;5.942;2022-11-20T10:03:11;14;;;13;;
15504;SDS011;7854;52.184;5.942;2022-11-20T10:05:24;19;;;17;;
15504;SDS011;7854;52.184;5.942;2022-11-20T10:07:39;14;;;13;;
15504;SDS011;7854;52.184;5.942;2022-11-20T10:09:52;14;;;13;;
15504;SDS011;7854;52.184;5.942;2022-11-20T10:12:11;16;;;14;;
15504;SDS011;7854;52.184;5.942;2022-11-20T10:14:24;17;;;13;;
15504;SDS011;7854;52.184;5.942;2022-11-20T10:16:36;24;;;15;;
15504;SDS011;7854;52.184;5.942;2022-11-20T10:18:54;15;;;14;;
15504;SDS011;7854;52.184;5.942;2022-11-20T10:21:05;18;;;16;;
15504;SDS011;7854;52.184;5.942;2022-11-20T10:23:23;16;;;14;;
15504;SDS011;7854;52.184;5.942;2022-11-20T10:25:33;17;;;15;;
15504;SDS011;7854;52.184;5.942;2022-11-20T10:27:54;15;;;13;;
15504;SDS011;7854;52.184;5.942;2022-11-20T10:30:02;16;;;14;;
15504;SDS011;7854;52.184;5.942;2022-11-20T10:32:16;18;;;16;;
15504;SDS011;7854;52.184;5.942;2022-11-20T10:34:31;21;;;19;;
15504;SDS011;7854;52.184;5.942;2022-11-20T10:36:46;18;;;17;;
15504;SDS011;7854;52.184;5.942;2022-11-20T10:39:00;19;;;16;;
15504;SDS011;7854;52.184;5.942;2022-11-20T10:41:15;20;;;18;;
15504;SDS011;7854;52.184;5.942;2022-11-20T10:43:31;22;;;18;;
15504;SDS011;7854;52.184;5.942;2022-11-20T10:45:46;19;;;17;;
15504;SDS011;7854;52.184;5.942;2022-11-20T10:47:59;20;;;18;;
15504;SDS011;7854;52.184;5.942;2022-11-20T10:50:11;21;;;16;;
15504;SDS011;7854;52.184;5.942;2022-11-20T10:52:28;18;;;16;;
15504;SDS011;7854;52.184;5.942;2022-11-20T10:54:42;29;;;17;;
15504;SDS011;7854;52.184;5.942;2022-11-20T10:56:56;19;;;17;;
15504;SDS011;7854;52.184;5.942;2022-11-20T10:59:24;20;;;18;;
15504;SDS011;7854;52.184;5.942;2022-11-20T11:01:23;17;;;16;;
15504;SDS011;7854;52.184;5.942;2022-11-20T11:03:37;21;;;17;;
15504;SDS011;7854;52.184;5.942;2022-11-20T11:05:53;18;;;16;;
15504;SDS011;7854;52.184;5.942;2022-11-20T11:08:09;19;;;17;;
15504;SDS011;7854;52.184;5.942;2022-11-20T11:10:22;23;;;17;;
15504;SDS011;7854;52.184;5.942;2022-11-20T11:12:34;25;;;17;;
15504;SDS011;7854;52.184;5.942;2022-11-20T11:14:49;23;;;16;;
15504;SDS011;7854;52.184;5.942;2022-11-20T11:17:04;26;;;19;;
15504;SDS011;7854;52.184;5.942;2022-11-20T11:19:18;22;;;19;;
15504;SDS011;7854;52.184;5.942;2022-11-20T11:21:31;19;;;17;;
15504;SDS011;7854;52.184;5.942;2022-11-20T11:23:45;19;;;18;;
15504;SDS011;7854;52.184;5.942;2022-11-20T11:26:00;17;;;16;;
15504;SDS011;7854;52.184;5.942;2022-11-20T11:28:19;19;;;15;;
15504;SDS011;7854;52.184;5.942;2022-11-20T11:30:30;17;;;15;;
15504;SDS011;7854;52.184;5.942;2022-11-20T11:32:43;20;;;16;;
15504;SDS011;7854;52.184;5.942;2022-11-20T11:34:58;20;;;17;;
15504;SDS011;7854;52.184;5.942;2022-11-20T11:37:13;18;;;15;;
15504;SDS011;7854;52.184;5.942;2022-11-20T11:39:27;15;;;14;;
15504;SDS011;7854;52.184;5.942;2022-11-20T11:41:41;21;;;17;;
15504;SDS011;7854;52.184;5.942;2022-11-20T11:43:57;18;;;16;;
15504;SDS011;7854;52.184;5.942;2022-11-20T11:46:22;19;;;16;;
15504;SDS011;7854;52.184;5.942;2022-11-20T11:48:25;21;;;16;;
15504;SDS011;7854;52.184;5.942;2022-11-20T11:50:47;18;;;16;;
15504;SDS011;7854;52.184;5.942;2022-11-20T11:52:58;21;;;16;;
15504;SDS011;7854;52.184;5.942;2022-11-20T11:55:09;25;;;17;;
15504;SDS011;7854;52.184;5.942;2022-11-20T11:57:23;21;;;18;;
15504;SDS011;7854;52.184;5.942;2022-11-20T11:59:41;19;;;17;;
15504;SDS011;7854;52.184;5.942;2022-11-20T12:01:52;18;;;15;;
15504;SDS011;7854;52.184;5.942;2022-11-20T12:04:10;19;;;16;;
15504;SDS011;7854;52.184;5.942;2022-11-20T12:06:20;18;;;16;;
15504;SDS011;7854;52.184;5.942;2022-11-20T12:08:37;20;;;17;;
15504;SDS011;7854;52.184;5.942;2022-11-20T12:10:48;16;;;15;;
15504;SDS011;7854;52.184;5.942;2022-11-20T12:13:08;16;;;15;;
15504;SDS011;7854;52.184;5.942;2022-11-20T12:15:21;17;;;15;;
15504;SDS011;7854;52.184;5.942;2022-11-20T12:17:32;19;;;17;;
15504;SDS011;7854;52.184;5.942;2022-11-20T12:19:46;18;;;15;;
15504;SDS011;7854;52.184;5.942;2022-11-20T12:22:02;18;;;16;;
15504;SDS011;7854;52.184;5.942;2022-11-20T12:26:34;18;;;16;;
15504;SDS011;7854;52.184;5.942;2022-11-20T12:28:44;18;;;16;;
15504;SDS011;7854;52.184;5.942;2022-11-20T12:31:02;20;;;18;;
15504;SDS011;7854;52.184;5.942;2022-11-20T12:33:15;22;;;18;;
15504;SDS011;7854;52.184;5.942;2022-11-20T12:35:31;30;;;18;;
15504;SDS011;7854;52.184;5.942;2022-11-20T12:37:43;20;;;18;;
15504;SDS011;7854;52.184;5.942;2022-11-20T12:39:56;20;;;18;;
15504;SDS011;7854;52.184;5.942;2022-11-20T12:42:16;18;;;16;;
15504;SDS011;7854;52.184;5.942;2022-11-20T12:44:28;19;;;17;;
15504;SDS011;7854;52.184;5.942;2022-11-20T12:46:38;16;;;15;;
15504;SDS011;7854;52.184;5.942;2022-11-20T12:49:11;20;;;15;;
15504;SDS011;7854;52.184;5.942;2022-11-20T12:51:18;18;;;15;;
15504;SDS011;7854;52.184;5.942;2022-11-20T12:53:24;18;;;15;;
15504;SDS011;7854;52.184;5.942;2022-11-20T12:55:38;19;;;17;;
15504;SDS011;7854;52.184;5.942;2022-11-20T12:57:53;15;;;13;;
15504;SDS011;7854;52.184;5.942;2022-11-20T13:00:09;23;;;16;;
15504;SDS011;7854;52.184;5.942;2022-11-20T13:02:23;18;;;16;;
15504;SDS011;7854;52.184;5.942;2022-11-20T13:04:39;21;;;16;;
15504;SDS011;7854;52.184;5.942;2022-11-20T13:06:48;18;;;17;;
15504;SDS011;7854;52.184;5.942;2022-11-20T13:09:04;21;;;16;;
15504;SDS011;7854;52.184;5.942;2022-11-20T13:11:18;17;;;15;;
15504;SDS011;7854;52.184;5.942;2022-11-20T13:13:34;19;;;17;;
15504;SDS011;7854;52.184;5.942;2022-11-20T13:15:47;18;;;16;;
15504;SDS011;7854;52.184;5.942;2022-11-20T13:18:00;19;;;17;;
15504;SDS011;7854;52.184;5.942;2022-11-20T13:20:13;20;;;17;;
15504;SDS011;7854;52.184;5.942;2022-11-20T13:22:28;22;;;15;;
15504;SDS011;7854;52.184;5.942;2022-11-20T13:24:49;22;;;19;;
15504;SDS011;7854;52.184;5.942;2022-11-20T13:27:00;31;;;20;;
15504;SDS011;7854;52.184;5.942;2022-11-20T13:29:11;22;;;20;;
15504;SDS011;7854;52.184;5.942;2022-11-20T13:31:30;27;;;20;;
15504;SDS011;7854;52.184;5.942;2022-11-20T13:33:40;26;;;19;;
15504;SDS011;7854;52.184;5.942;2022-11-20T13:35:55;22;;;19;;
15504;SDS011;7854;52.184;5.942;2022-11-20T13:38:09;32;;;24;;
15504;SDS011;7854;52.184;5.942;2022-11-20T13:40:23;24;;;21;;
15504;SDS011;7854;52.184;5.942;2022-11-20T13:42:38;28;;;23;;
15504;SDS011;7854;52.184;5.942;2022-11-20T13:44:53;24;;;20;;
15504;SDS011;7854;52.184;5.942;2022-11-20T13:47:17;28;;;22;;
15504;SDS011;7854;52.184;5.942;2022-11-20T13:49:25;25;;;23;;
15504;SDS011;7854;52.184;5.942;2022-11-20T13:51:37;25;;;22;;
15504;SDS011;7854;52.184;5.942;2022-11-20T13:53:56;22;;;20;;
15504;SDS011;7854;52.184;5.942;2022-11-20T13:56:05;22;;;20;;
15504;SDS011;7854;52.184;5.942;2022-11-20T13:58:20;28;;;21;;
15504;SDS011;7854;52.184;5.942;2022-11-20T14:00:32;23;;;20;;
15504;SDS011;7854;52.184;5.942;2022-11-20T14:05:02;29;;;23;;
15504;SDS011;7854;52.184;5.942;2022-11-20T14:07:14;28;;;23;;
15504;SDS011;7854;52.184;5.942;2022-11-20T14:09:30;25;;;22;;
15504;SDS011;7854;52.184;5.942;2022-11-20T14:11:45;26;;;22;;
15504;SDS011;7854;52.184;5.942;2022-11-20T14:13:58;27;;;25;;
15504;SDS011;7854;52.184;5.942;2022-11-20T14:16:11;28;;;23;;
15504;SDS011;7854;52.184;5.942;2022-11-20T14:18:26;32;;;25;;
15504;SDS011;7854;52.184;5.942;2022-11-20T14:20:40;26;;;23;;
15504;SDS011;7854;52.184;5.942;2022-11-20T14:22:55;28;;;25;;
15504;SDS011;7854;52.184;5.942;2022-11-20T14:25:18;25;;;22;;
15504;SDS011;7854;52.184;5.942;2022-11-20T14:27:23;27;;;22;;
15504;SDS011;7854;52.184;5.942;2022-11-20T14:29:38;37;;;25;;
15504;SDS011;7854;52.184;5.942;2022-11-20T14:31:53;26;;;23;;
15504;SDS011;7854;52.184;5.942;2022-11-20T14:34:10;34;;;25;;
15504;SDS011;7854;52.184;5.942;2022-11-20T14:36:22;29;;;23;;
15504;SDS011;7854;52.184;5.942;2022-11-20T14:38:36;30;;;24;;
15504;SDS011;7854;52.184;5.942;2022-11-20T14:40:50;30;;;25;;
15504;SDS011;7854;52.184;5.942;2022-11-20T14:43:15;38;;;28;;
15504;SDS011;7854;52.184;5.942;2022-11-20T14:45:19;32;;;27;;